Knotts Island, NC (27950)

5:01 PM EDT on October 01, 2016 (GMT -0400)
KNCMOYOC1 | | Change Station

Elev 5 ft 36.46 °N, 76.09 °W | Updated 8 seconds ago

Scattered Clouds
Scattered Clouds
80.7 °F
Feels Like 85 °F
N
0.0
Wind Variable Wind from South
Gusts 0.0 mph

Today
High -- | Low -- °F
--% Chance of Precip.
Yesterday
High -- | Low -- °F
Precip. -- in
Pressure 30.04 in
Visibility 10.0 miles
Clouds Scattered Clouds 2900 ft
Scattered Clouds 3400 ft
Scattered Clouds 11000 ft
Heat Index 85 °F
Dew Point 72 °F
Humidity 76%
Rainfall 0.02 in
Snow Depth Not available.
6:59 AM 6:46 PM
New Moon, 1% visible
METAR KONX 012045Z AUTO 22004KT 10SM SCT029 SCT034 SCT110 27/21 A3004 RMK AO2 T02740208
Pressure 30.04 in
Visibility 10.0 miles
Clouds Scattered Clouds 2900 ft
Scattered Clouds 3400 ft
Scattered Clouds 11000 ft
Heat Index 85 °F
Dew Point 72 °F
Humidity 76%
Rainfall 0.02 in
Snow Depth Not available.
6:59 AM 6:46 PM
New Moon, 1% visible
METAR KONX 012045Z AUTO 22004KT 10SM SCT029 SCT034 SCT110 27/21 A3004 RMK AO2 T02740208

10-Day Weather Forecast

Almanac

Astronomy

Oct. 01, 2016 Rise Set
Actual Time
Civil Twilight
Nautical Twilight
Astronomical Twilight
Moon
Length of Visible Light
Length of Day
Tomorrow will be .
, % of the Moon is Illuminated

Today's Extremes

State Highs State Lows

Community

WunderPhotos

Upload Photos

1,943,022 photos uploaded!

WunderBlog® & News

Nearby

Air Quality

  Air Quality AQ Index Pollutant
Not available.

Snow Depth

Station Depth Elevation

Earthquake Activity

City Distance Mag. Time & Date
Minimum magnitude displayed is 2.5.

Coastal Water Temperatures

Place Temperature

Stations

Nearby Weather Stations

Station Location Temp. Windchill Dew Point Humidity Wind Precip. Elev Updated Type
                   

Watches & Warnings

There are currently no watches in effect.